createdAt,value
2022-12-09T00:02:23.526Z,8.58
2022-12-09T00:07:29.659Z,9.94
2022-12-09T00:12:36.149Z,8.67
2022-12-09T00:17:42.193Z,8.32
2022-12-09T00:22:48.199Z,9.41
2022-12-09T00:27:54.683Z,9.94
2022-12-09T00:33:00.803Z,9.28
2022-12-09T00:38:07.113Z,8.68
2022-12-09T00:43:13.209Z,9.53
2022-12-09T00:48:19.209Z,9.92
2022-12-09T00:53:25.461Z,7.79
2022-12-09T00:58:31.697Z,8.77
2022-12-09T01:03:37.824Z,9.18
2022-12-09T01:08:43.906Z,7.58
2022-12-09T01:13:49.968Z,9.05
2022-12-09T01:18:56.070Z,8.31
2022-12-09T01:24:02.250Z,8.44
2022-12-09T01:29:08.491Z,7.21
2022-12-09T01:34:14.554Z,8.34
2022-12-09T01:39:21.202Z,11.16
2022-12-09T01:44:27.274Z,10.24
2022-12-09T01:49:33.647Z,9.51
2022-12-09T01:54:39.788Z,9.82
2022-12-09T01:59:46.048Z,8.95
2022-12-09T02:04:52.382Z,9.51
2022-12-09T02:09:58.618Z,10.11
2022-12-09T02:15:04.684Z,9.04
2022-12-09T02:20:10.836Z,9.79
2022-12-09T02:25:16.424Z,9.23
2022-12-09T02:30:22.628Z,8.73
2022-12-09T02:35:28.526Z,9.26
2022-12-09T02:40:34.701Z,8.73
2022-12-09T02:45:40.852Z,8.71
2022-12-09T02:50:47.446Z,9.02
2022-12-09T02:55:53.423Z,8.39
2022-12-09T03:00:59.746Z,8.35
2022-12-09T03:06:05.942Z,8.54
2022-12-09T03:11:12.704Z,10.07
2022-12-09T03:16:18.603Z,9.79
2022-12-09T03:21:24.638Z,10.15
2022-12-09T03:26:31.001Z,10.03
2022-12-09T03:31:37.223Z,11.96
2022-12-09T03:36:43.805Z,10.65
2022-12-09T03:41:49.992Z,10.61
2022-12-09T03:46:56.497Z,10.42
2022-12-09T03:52:02.972Z,10.49
2022-12-09T03:57:13.646Z,9.83
2022-12-09T04:02:14.962Z,12.12
2022-12-09T04:07:21.565Z,10.12
2022-12-09T04:12:27.771Z,10.97
2022-12-09T04:17:34.091Z,12.24
2022-12-09T04:22:40.386Z,12.38
2022-12-09T04:27:46.797Z,12.98
2022-12-09T04:32:52.882Z,12.01
2022-12-09T04:37:59.086Z,13.55
2022-12-09T04:43:05.161Z,12.07
2022-12-09T04:48:11.733Z,12.21
2022-12-09T04:53:17.564Z,12.38
2022-12-09T04:58:24.115Z,12.08
2022-12-09T05:03:32.217Z,12.01
2022-12-09T05:08:39.382Z,13.28
2022-12-09T05:13:45.410Z,11.61
2022-12-09T05:18:51.537Z,13.16
2022-12-09T05:23:56.881Z,11.42
2022-12-09T05:29:03.059Z,12.51
2022-12-09T05:34:09.497Z,11.72
2022-12-09T05:39:15.399Z,12.01
2022-12-09T05:44:21.589Z,11.94
2022-12-09T05:49:27.950Z,10.98
2022-12-09T05:54:33.979Z,11.27
2022-12-09T05:59:40.309Z,11.01
2022-12-09T06:04:46.442Z,12.20
2022-12-09T06:09:52.611Z,11.32
2022-12-09T06:14:58.955Z,11.43
2022-12-09T06:20:04.808Z,11.86
2022-12-09T06:25:10.555Z,12.64
2022-12-09T06:30:16.132Z,12.36
2022-12-09T06:35:21.488Z,13.51
2022-12-09T06:40:27.193Z,12.82
2022-12-09T06:45:33.299Z,12.05
2022-12-09T06:50:39.771Z,13.65
2022-12-09T06:55:45.719Z,12.29
2022-12-09T07:00:52.498Z,12.28
2022-12-09T07:05:58.659Z,13.36
2022-12-09T07:11:04.867Z,12.27
2022-12-09T07:16:10.496Z,12.22
2022-12-09T07:21:16.332Z,12.60
2022-12-09T07:26:22.293Z,12.88
2022-12-09T07:31:28.932Z,12.40
2022-12-09T07:36:34.530Z,14.07
2022-12-09T07:41:40.711Z,13.22
2022-12-09T07:46:50.741Z,13.45
2022-12-09T07:51:56.826Z,14.42
2022-12-09T07:57:03.693Z,14.46
2022-12-09T08:02:09.539Z,14.16
2022-12-09T08:07:14.857Z,15.64
2022-12-09T08:12:20.770Z,14.56
2022-12-09T08:17:26.750Z,29.95
2022-12-09T08:22:33.171Z,15.53
2022-12-09T08:27:39.651Z,17.14
2022-12-09T08:32:48.535Z,15.75
2022-12-09T08:37:54.016Z,16.51
2022-12-09T08:43:03.753Z,16.71
2022-12-09T08:48:10.310Z,17.17
2022-12-09T08:53:16.025Z,37.15
2022-12-09T08:58:21.932Z,26.20
2022-12-09T09:03:28.222Z,23.71
2022-12-09T09:08:34.348Z,46.83
2022-12-09T09:13:40.832Z,43.58
2022-12-09T09:18:46.564Z,23.77
2022-12-09T09:23:52.598Z,23.37
2022-12-09T09:28:57.979Z,21.39
2022-12-09T09:34:04.159Z,20.99
2022-12-09T09:39:09.911Z,25.52
2022-12-09T09:44:16.114Z,22.29
2022-12-09T09:49:22.866Z,24.34
2022-12-09T09:55:33.953Z,33.41
2022-12-09T10:00:39.848Z,28.73
2022-12-09T10:05:45.847Z,18.65
2022-12-09T10:10:51.562Z,22.95
2022-12-09T10:15:57.590Z,20.51
2022-12-09T10:21:02.662Z,19.19
2022-12-09T10:26:08.702Z,25.52
2022-12-09T10:31:14.386Z,21.76
2022-12-09T10:36:20.810Z,22.92
2022-12-09T10:41:27.013Z,19.76
2022-12-09T10:46:32.542Z,22.97
2022-12-09T10:51:38.888Z,19.01
2022-12-09T10:56:44.413Z,20.50
2022-12-09T11:01:50.693Z,19.35
2022-12-09T11:06:59.335Z,17.56
2022-12-09T11:12:02.216Z,19.05
2022-12-09T11:17:07.988Z,17.56
2022-12-09T11:22:13.598Z,19.10
2022-12-09T11:27:19.316Z,20.31
2022-12-09T11:32:25.382Z,19.53
2022-12-09T11:37:31.375Z,20.40
2022-12-09T11:42:37.778Z,21.84
2022-12-09T11:48:22.659Z,19.94
2022-12-09T11:52:49.606Z,18.55
2022-12-09T11:57:56.160Z,20.91
2022-12-09T12:03:29.927Z,21.19
2022-12-09T12:08:36.272Z,18.03
2022-12-09T12:13:42.265Z,19.99
2022-12-09T12:18:48.884Z,18.72
2022-12-09T12:23:55.033Z,23.70
2022-12-09T12:29:06.935Z,20.85
2022-12-09T12:34:25.337Z,23.13
2022-12-09T12:39:12.602Z,24.82
2022-12-09T12:44:18.773Z,23.58
2022-12-09T12:49:24.983Z,25.50
2022-12-09T12:54:31.060Z,25.86
2022-12-09T12:59:37.244Z,28.19
2022-12-09T13:04:43.407Z,29.38
2022-12-09T13:09:49.655Z,28.93
2022-12-09T13:14:55.842Z,30.68
2022-12-09T13:20:02.058Z,28.76
2022-12-09T13:25:08.177Z,32.59
2022-12-09T13:30:14.379Z,31.97
2022-12-09T13:35:20.451Z,29.79
2022-12-09T13:40:26.835Z,28.30
2022-12-09T13:45:33.004Z,31.94
2022-12-09T13:50:39.242Z,29.58
2022-12-09T13:55:45.395Z,27.37
2022-12-09T14:01:04.264Z,30.68
2022-12-09T14:05:54.655Z,31.70
2022-12-09T14:11:01.040Z,31.99
2022-12-09T14:16:07.471Z,29.05
2022-12-09T14:21:13.560Z,27.53
2022-12-09T14:26:19.659Z,28.76
2022-12-09T14:31:26.322Z,30.84
2022-12-09T14:36:32.375Z,27.20
2022-12-09T14:41:38.519Z,31.02
2022-12-09T14:46:44.648Z,28.65
2022-12-09T14:51:50.809Z,29.47
2022-12-09T14:56:56.895Z,27.87
2022-12-09T15:02:03.140Z,29.62
2022-12-09T15:07:09.250Z,27.57
2022-12-09T15:12:15.565Z,29.46
2022-12-09T15:17:21.812Z,28.94
2022-12-09T15:22:27.972Z,28.23
2022-12-09T15:27:34.374Z,31.95
2022-12-09T15:32:40.600Z,30.35
2022-12-09T15:37:46.806Z,28.60
2022-12-09T15:42:53.056Z,31.78
2022-12-09T15:47:59.164Z,28.54
2022-12-09T15:53:05.764Z,30.32
2022-12-09T15:58:11.883Z,29.50
2022-12-09T16:03:18.516Z,30.87
2022-12-09T16:08:24.673Z,33.28
2022-12-09T16:13:30.952Z,32.29
2022-12-09T16:18:37.111Z,31.92
2022-12-09T16:23:43.422Z,33.33
2022-12-09T16:28:49.506Z,42.87
2022-12-09T16:33:55.791Z,52.78
2022-12-09T16:39:01.979Z,32.11
2022-12-09T16:44:08.269Z,30.70
2022-12-09T16:49:14.415Z,28.99
2022-12-09T16:54:21.036Z,31.42
2022-12-09T16:59:30.174Z,29.19
2022-12-09T17:04:32.337Z,29.68
2022-12-09T17:09:38.549Z,31.07
2022-12-09T17:14:44.686Z,31.52
2022-12-09T17:19:50.806Z,32.30
2022-12-09T17:24:57.113Z,32.40
2022-12-09T17:30:03.320Z,32.87
2022-12-09T17:35:12.738Z,33.41
2022-12-09T17:40:15.232Z,35.13
2022-12-09T17:45:21.438Z,33.29
2022-12-09T17:50:27.618Z,40.07
2022-12-09T17:55:34.228Z,36.89
2022-12-09T18:00:40.560Z,36.40
2022-12-09T18:05:47.471Z,34.23
2022-12-09T18:10:53.998Z,33.63
2022-12-09T18:16:00.254Z,34.85
2022-12-09T18:21:10.587Z,36.69
2022-12-09T18:26:12.525Z,38.67
2022-12-09T18:31:19.187Z,36.12
2022-12-09T18:36:25.279Z,37.77
2022-12-09T18:41:31.331Z,41.34
2022-12-09T18:46:37.850Z,39.34
2022-12-09T18:51:43.806Z,38.67
2022-12-09T18:56:49.916Z,34.79
2022-12-09T19:01:56.078Z,38.45
2022-12-09T19:07:02.227Z,39.15
2022-12-09T19:12:38.390Z,36.30
2022-12-09T19:17:14.379Z,41.46
2022-12-09T19:22:20.808Z,41.15
2022-12-09T19:27:27.106Z,40.02
2022-12-09T19:32:51.827Z,40.04
2022-12-09T19:37:39.986Z,37.73
2022-12-09T19:42:46.265Z,37.50
2022-12-09T19:47:52.445Z,37.54
2022-12-09T19:52:58.571Z,40.08
2022-12-09T19:58:05.608Z,37.78
2022-12-09T20:03:11.836Z,41.70
2022-12-09T20:08:18.013Z,40.61
2022-12-09T20:13:28.629Z,39.39
2022-12-09T20:18:29.844Z,37.02
2022-12-09T20:23:49.479Z,39.92
2022-12-09T20:28:56.076Z,37.30
2022-12-09T20:34:02.949Z,37.59
2022-12-09T20:39:09.101Z,34.16
2022-12-09T20:44:15.239Z,32.40
2022-12-09T20:49:21.375Z,34.88
2022-12-09T20:54:27.666Z,33.10
2022-12-09T20:59:33.819Z,34.07
2022-12-09T21:04:39.966Z,35.18
2022-12-09T21:09:46.186Z,31.63
2022-12-09T21:14:52.253Z,31.40
2022-12-09T21:19:58.380Z,32.90
2022-12-09T21:25:04.496Z,33.11
2022-12-09T21:30:10.779Z,30.92
2022-12-09T21:35:16.749Z,32.32
2022-12-09T21:40:23.171Z,31.22
2022-12-09T21:45:29.423Z,29.45
2022-12-09T21:50:35.543Z,28.69
2022-12-09T21:55:41.608Z,30.67
2022-12-09T22:00:47.924Z,30.14
2022-12-09T22:05:58.118Z,28.33
2022-12-09T22:10:59.891Z,29.50
2022-12-09T22:16:06.091Z,29.62
2022-12-09T22:21:25.310Z,29.23
2022-12-09T22:26:18.317Z,28.90
2022-12-09T22:31:24.599Z,29.27
2022-12-09T22:36:30.746Z,28.78
2022-12-09T22:41:37.239Z,28.28
2022-12-09T22:47:00.405Z,30.45
2022-12-09T22:52:06.973Z,30.63
2022-12-09T22:57:14.493Z,29.78
2022-12-09T23:02:19.436Z,29.55
2022-12-09T23:07:25.483Z,29.30
2022-12-09T23:12:31.889Z,27.30
2022-12-09T23:17:38.047Z,27.70
2022-12-09T23:22:44.235Z,27.80
2022-12-09T23:27:50.291Z,29.94
2022-12-09T23:32:56.490Z,28.91
2022-12-09T23:38:02.968Z,28.61
2022-12-09T23:43:09.160Z,27.58
2022-12-09T23:48:15.367Z,28.07
2022-12-09T23:53:21.520Z,28.83
2022-12-09T23:58:27.695Z,28.16
